Time;durP1;ratioP1;P1;durP2;ratioP2;P2;SDS_P1;SDS_P2;PMS_P1;PMS_P2;Temp;Humidity;BMP_temperature;BMP_pressure;BME280_temperature;BME280_humidity;BME280_pressure;Samples;Min_cycle;Max_cycle;Signal;HPM_P1;HPM_P2
2023/12/13 00:03:29;;;;;;;30.73;27.70;;;10.20;86.60;;;;;;12661774;28;20024;-70
2023/12/13 00:09:32;;;;;;;33.20;29.33;;;10.10;86.50;;;;;;12661405;28;20068;-70
2023/12/13 00:15:34;;;;;;;30.88;27.63;;;10.20;86.60;;;;;;12661114;28;20341;-70
2023/12/13 00:21:35;;;;;;;31.67;28.25;;;10.20;86.40;;;;;;12660858;28;20039;-70
2023/12/13 00:27:37;;;;;;;36.20;32.38;;;10.10;86.60;;;;;;12658611;28;20047;-70
2023/12/13 00:33:39;;;;;;;31.75;28.30;;;10.20;86.50;;;;;;12660256;28;20345;-71
2023/12/13 00:39:40;;;;;;;29.75;26.60;;;10.20;86.40;;;;;;12659892;28;20032;-70
2023/12/13 00:45:41;;;;;;;31.95;27.70;;;10.20;86.50;;;;;;12659816;28;20452;-71
2023/12/13 00:51:43;;;;;;;28.52;25.13;;;10.10;86.60;;;;;;12658235;28;20032;-71
2023/12/13 00:57:44;;;;;;;28.30;24.98;;;10.10;86.70;;;;;;12657850;28;20035;-71
2023/12/13 01:03:46;;;;;;;32.58;28.88;;;10.00;86.60;;;;;;12657700;28;20036;-71
2023/12/13 01:09:47;;;;;;;31.55;27.10;;;10.00;86.70;;;;;;12658548;28;20032;-71
2023/12/13 01:15:49;;;;;;;31.35;24.67;;;9.80;86.60;;;;;;12658167;28;20028;-71
2023/12/13 01:21:51;;;;;;;29.52;26.42;;;9.90;86.90;;;;;;12657966;28;20051;-70
2023/12/13 01:27:57;;;;;;;34.13;28.52;;;9.90;86.60;;;;;;12656466;28;20028;-70
2023/12/13 01:33:59;;;;;;;32.50;28.63;;;9.90;86.90;;;;;;12657335;28;20036;-70
2023/12/13 01:40:01;;;;;;;27.40;22.50;;;9.90;86.80;;;;;;12655661;28;20027;-71
2023/12/13 01:46:03;;;;;;;30.77;27.60;;;10.00;86.80;;;;;;12656692;28;20028;-70
2023/12/13 01:52:31;;;;;;;29.90;26.67;;;10.10;86.90;;;;;;12656515;28;20050;-70
2023/12/13 01:58:38;;;;;;;32.92;29.40;;;10.10;86.70;;;;;;12656033;28;20028;-70
2023/12/13 02:04:42;;;;;;;29.45;25.42;;;10.10;86.80;;;;;;12654810;28;20051;-70
2023/12/13 02:10:45;;;;;;;27.73;24.15;;;10.00;86.70;;;;;;12656386;28;20020;-74
2023/12/13 02:16:47;;;;;;;28.98;25.98;;;10.00;86.90;;;;;;12654410;28;20044;-74
2023/12/13 02:22:48;;;;;;;31.15;27.48;;;10.00;86.90;;;;;;12654061;28;20024;-74
2023/12/13 02:28:50;;;;;;;34.10;26.38;;;10.00;87.00;;;;;;12653640;28;20040;-74
2023/12/13 02:34:51;;;;;;;33.70;26.63;;;9.90;87.00;;;;;;12654717;28;20032;-71
2023/12/13 02:40:53;;;;;;;21.85;19.38;;;9.90;87.30;;;;;;12653287;28;20036;-70
2023/12/13 02:46:57;;;;;;;26.83;23.30;;;9.90;87.20;;;;;;12654326;28;20027;-70
2023/12/13 02:52:59;;;;;;;23.70;21.25;;;9.80;87.20;;;;;;12652974;28;20436;-70
2023/12/13 02:59:06;;;;;;;25.08;21.92;;;9.80;87.20;;;;;;12652725;28;20072;-71
2023/12/13 03:05:08;;;;;;;23.63;20.70;;;9.90;87.10;;;;;;12652684;28;20036;-71
2023/12/13 03:11:10;;;;;;;22.88;19.25;;;9.90;86.90;;;;;;12652561;28;20032;-71
2023/12/13 03:17:12;;;;;;;20.75;18.52;;;9.70;86.90;;;;;;12652209;28;20044;-71
2023/12/13 03:23:14;;;;;;;22.52;19.65;;;9.60;87.00;;;;;;12652261;28;20030;-75
2023/12/13 03:29:16;;;;;;;24.05;21.48;;;9.50;87.10;;;;;;12653322;28;20028;-75
2023/12/13 03:35:17;;;;;;;24.45;21.30;;;9.60;87.10;;;;;;12652045;28;20032;-75
2023/12/13 03:41:19;;;;;;;23.02;20.55;;;9.50;87.00;;;;;;12635887;28;20051;-75
2023/12/13 03:47:20;;;;;;;20.90;17.63;;;9.70;87.20;;;;;;12652878;28;20467;-75
2023/12/13 03:53:22;;;;;;;20.63;17.17;;;9.60;86.90;;;;;;12652780;28;20348;-75
2023/12/13 03:59:23;;;;;;;19.80;17.70;;;9.60;87.10;;;;;;12651388;28;20035;-70
2023/12/13 04:05:26;;;;;;;22.52;19.95;;;9.70;87.00;;;;;;12657570;28;20027;-70
2023/12/13 04:11:28;;;;;;;19.25;17.15;;;9.70;87.00;;;;;;12661398;28;20336;-70
2023/12/13 04:17:29;;;;;;;24.70;19.85;;;9.80;86.80;;;;;;12659918;28;20032;-75
2023/12/13 04:23:31;;;;;;;19.77;17.67;;;10.00;86.80;;;;;;12659687;28;20036;-75
2023/12/13 04:29:32;;;;;;;19.10;17.15;;;10.20;86.70;;;;;;12659436;28;20035;-75
2023/12/13 04:35:34;;;;;;;18.90;15.77;;;10.20;86.50;;;;;;12659152;28;20027;-75
2023/12/13 04:41:38;;;;;;;19.92;17.77;;;10.20;86.40;;;;;;12659960;28;20028;-75
2023/12/13 04:47:39;;;;;;;20.35;17.77;;;10.20;86.30;;;;;;12659857;28;20028;-75
2023/12/13 04:53:41;;;;;;;17.20;14.98;;;10.20;86.30;;;;;;12659447;28;20024;-75
2023/12/13 04:59:43;;;;;;;20.23;17.23;;;10.30;86.20;;;;;;12658945;28;20055;-71
2023/12/13 05:06:28;;;;;;;19.50;15.55;;;10.40;86.10;;;;;;12658881;28;20020;-71
2023/12/13 05:12:29;;;;;;;18.08;15.98;;;10.50;85.90;;;;;;12658784;28;20017;-71
2023/12/13 05:18:31;;;;;;;19.25;16.35;;;10.20;86.00;;;;;;12657027;28;20024;-71
2023/12/13 05:24:33;;;;;;;15.30;13.77;;;10.20;86.30;;;;;;12656795;28;20455;-71
2023/12/13 05:30:34;;;;;;;16.33;14.50;;;10.40;86.00;;;;;;12656536;28;20345;-75
2023/12/13 05:36:36;;;;;;;16.20;13.48;;;10.50;85.80;;;;;;12658169;28;20035;-71
2023/12/13 05:42:37;;;;;;;15.75;14.02;;;10.40;85.40;;;;;;12657357;28;20020;-75
2023/12/13 05:48:39;;;;;;;14.55;13.15;;;10.40;85.80;;;;;;12656876;28;20035;-75
2023/12/13 05:54:40;;;;;;;13.68;11.32;;;10.30;85.60;;;;;;12656428;28;20059;-75
2023/12/13 06:00:43;;;;;;;16.75;14.98;;;10.30;85.60;;;;;;12656884;28;20054;-75
2023/12/13 06:06:45;;;;;;;15.02;10.70;;;10.20;85.90;;;;;;12655503;28;20040;-75
2023/12/13 06:12:50;;;;;;;17.42;14.05;;;10.20;85.70;;;;;;12655354;28;20032;-75
2023/12/13 06:18:53;;;;;;;15.48;13.88;;;10.40;86.00;;;;;;12655449;28;20361;-75
2023/12/13 06:24:57;;;;;;;13.90;12.30;;;10.50;85.50;;;;;;12653676;28;20055;-75
2023/12/13 06:30:59;;;;;;;13.57;11.70;;;10.60;85.20;;;;;;12653854;28;20041;-75
2023/12/13 06:37:00;;;;;;;18.15;14.55;;;10.20;85.50;;;;;;12654634;28;20039;-75
2023/12/13 06:43:02;;;;;;;14.05;11.75;;;10.00;85.80;;;;;;12653943;28;20028;-75
2023/12/13 06:49:04;;;;;;;19.52;17.42;;;10.20;86.10;;;;;;12653584;28;20432;-75
2023/12/13 06:55:07;;;;;;;17.42;15.00;;;10.50;85.90;;;;;;12651037;22;20043;-75
2023/12/13 07:01:08;;;;;;;17.13;13.40;;;10.60;85.40;;;;;;12585834;28;20480;-75
2023/12/13 07:07:14;;;;;;;15.35;12.52;;;10.70;85.30;;;;;;12603565;28;20238;-75
2023/12/13 07:13:16;;;;;;;17.17;15.15;;;10.90;84.80;;;;;;12603441;28;20040;-75
2023/12/13 07:19:18;;;;;;;14.73;13.27;;;10.60;85.00;;;;;;12603802;28;20043;-75
2023/12/13 07:25:20;;;;;;;14.93;13.15;;;10.50;85.10;;;;;;12569334;28;20433;-75
2023/12/13 07:31:21;;;;;;;14.40;12.38;;;10.20;85.40;;;;;;12585235;28;20040;-75
2023/12/13 07:37:23;;;;;;;14.23;12.18;;;10.00;85.70;;;;;;12604219;28;20357;-75
2023/12/13 07:43:26;;;;;;;13.93;11.52;;;9.90;86.00;;;;;;12612494;28;20033;-76
2023/12/13 07:49:28;;;;;;;18.48;13.77;;;9.80;86.10;;;;;;12612752;28;20037;-75
2023/12/13 07:55:30;;;;;;;15.52;13.45;;;9.70;86.30;;;;;;12611752;28;20464;-76
2023/12/13 08:01:31;;;;;;;14.68;12.68;;;10.00;86.40;;;;;;12593701;28;20043;-76
2023/12/13 08:07:34;;;;;;;12.75;11.00;;;10.10;86.00;;;;;;12611359;28;20445;-76
2023/12/13 08:13:35;;;;;;;16.23;13.93;;;9.90;85.90;;;;;;12593456;28;20562;-77
2023/12/13 08:19:37;;;;;;;17.33;15.55;;;9.90;86.20;;;;;;12592988;28;20028;-76
2023/12/13 08:25:38;;;;;;;18.92;16.98;;;9.90;86.50;;;;;;12610572;28;20032;-76
2023/12/13 08:31:40;;;;;;;22.23;18.38;;;10.20;86.40;;;;;;12610303;28;20032;-76
2023/12/13 08:37:42;;;;;;;17.60;14.85;;;10.60;85.90;;;;;;12609934;28;20455;-77
2023/12/13 08:43:43;;;;;;;18.77;16.52;;;10.60;85.30;;;;;;12609863;28;20032;-77
2023/12/13 08:49:46;;;;;;;19.27;16.13;;;10.20;85.80;;;;;;12621781;28;20032;-76
2023/12/13 08:55:47;;;;;;;17.65;14.90;;;10.40;86.40;;;;;;12610881;28;20246;-76
2023/12/13 09:01:49;;;;;;;19.08;17.23;;;10.50;85.80;;;;;;12657126;28;20040;-75
2023/12/13 09:07:50;;;;;;;17.83;15.95;;;10.70;86.00;;;;;;12658903;28;20036;-75
2023/12/13 09:13:52;;;;;;;19.02;17.00;;;10.60;85.60;;;;;;12658558;28;20028;-74
2023/12/13 09:19:54;;;;;;;18.77;16.88;;;10.30;86.10;;;;;;12658142;28;20054;-75
2023/12/13 09:25:59;;;;;;;19.10;16.17;;;10.20;86.10;;;;;;12645383;28;20028;-75
2023/12/13 09:32:00;;;;;;;18.17;16.40;;;10.20;86.00;;;;;;12607333;28;20043;-75
2023/12/13 09:38:04;;;;;;;21.73;18.92;;;10.20;86.10;;;;;;12606952;28;20447;-75
2023/12/13 09:44:07;;;;;;;19.80;16.73;;;10.20;86.30;;;;;;12606700;28;20032;-75
2023/12/13 09:50:11;;;;;;;15.82;14.23;;;10.10;86.10;;;;;;12588732;28;20036;-75
2023/12/13 09:56:12;;;;;;;16.13;13.13;;;9.90;86.30;;;;;;12605864;28;20032;-75
2023/12/13 10:02:16;;;;;;;15.45;13.85;;;9.80;86.50;;;;;;12605129;28;20047;-75
2023/12/13 10:08:18;;;;;;;12.40;10.95;;;9.80;86.80;;;;;;12587866;28;20028;-74
2023/12/13 10:14:20;;;;;;;15.63;12.60;;;9.90;86.60;;;;;;12605544;28;20215;-74
2023/12/13 10:20:22;;;;;;;13.20;11.82;;;10.20;86.70;;;;;;12605111;28;20032;-71
2023/12/13 10:26:24;;;;;;;16.17;14.48;;;10.20;86.70;;;;;;12604858;28;20036;-71
2023/12/13 10:32:26;;;;;;;16.35;14.68;;;10.30;86.80;;;;;;12604917;28;20326;-71
2023/12/13 10:38:30;;;;;;;13.63;11.85;;;10.40;86.30;;;;;;12586727;28;20047;-71
2023/12/13 10:44:34;;;;;;;16.67;13.88;;;10.40;86.60;;;;;;12587197;28;20040;-71
2023/12/13 10:50:36;;;;;;;16.65;14.85;;;10.20;86.50;;;;;;12604186;28;20036;-71
2023/12/13 10:56:38;;;;;;;11.00;8.45;;;10.10;86.60;;;;;;12603914;28;20448;-71
2023/12/13 11:02:50;;;;;;;13.55;11.43;;;10.00;86.80;;;;;;12602536;28;20353;-71
2023/12/13 11:08:52;;;;;;;21.05;19.27;;;10.20;87.20;;;;;;12586154;28;20037;-71
2023/12/13 11:14:54;;;;;;;15.05;13.63;;;10.50;86.90;;;;;;12609144;28;20455;-71
2023/12/13 11:20:55;;;;;;;17.42;15.77;;;10.70;87.10;;;;;;12613561;28;20044;-71
2023/12/13 11:26:58;;;;;;;13.88;12.15;;;10.70;86.60;;;;;;12613332;28;20036;-71
2023/12/13 11:33:11;;;;;;;11.70;10.48;;;10.20;86.70;;;;;;12613103;28;20028;-71
2023/12/13 11:39:13;;;;;;;15.07;13.00;;;10.20;87.10;;;;;;12612654;28;20025;-71
2023/12/13 11:45:19;;;;;;;12.95;11.27;;;10.10;87.10;;;;;;12612280;28;20429;-71
2023/12/13 11:51:20;;;;;;;15.40;12.65;;;9.90;87.10;;;;;;12615362;28;20051;-71
2023/12/13 11:57:22;;;;;;;13.45;12.13;;;10.20;87.60;;;;;;12613713;28;20036;-71
2023/12/13 12:03:25;;;;;;;22.38;20.35;;;10.30;87.10;;;;;;12610521;28;20032;-71
2023/12/13 12:09:27;;;;;;;21.00;18.85;;;10.50;87.40;;;;;;12610165;28;20048;-71
2023/12/13 12:15:33;;;;;;;14.30;12.77;;;11.00;87.10;;;;;;12592602;28;20049;-71
2023/12/13 12:21:39;;;;;;;17.88;15.68;;;11.00;86.30;;;;;;12610146;28;20028;-72
2023/12/13 12:27:50;;;;;;;18.65;15.98;;;10.70;86.60;;;;;;12592299;28;20036;-71
2023/12/13 12:33:55;;;;;;;14.57;12.50;;;10.40;86.70;;;;;;12610204;28;20056;-71
2023/12/13 12:39:57;;;;;;;18.80;16.92;;;10.20;87.00;;;;;;12609893;28;20546;-71
2023/12/13 12:45:59;;;;;;;18.40;15.70;;;10.20;87.20;;;;;;12609691;28;20028;-72
2023/12/13 12:52:00;;;;;;;16.50;14.50;;;10.30;87.60;;;;;;12575104;28;20048;-72
2023/12/13 12:58:02;;;;;;;19.50;17.70;;;10.60;87.00;;;;;;12608789;28;20425;-72
2023/12/13 13:04:05;;;;;;;16.92;15.50;;;10.50;86.90;;;;;;12608695;28;20040;-72
2023/12/13 13:10:11;;;;;;;13.25;11.93;;;10.30;87.20;;;;;;12608455;28;20028;-71
2023/12/13 13:16:14;;;;;;;17.55;12.50;;;10.30;87.30;;;;;;12608129;28;20441;-72
2023/12/13 13:22:15;;;;;;;21.35;19.13;;;10.30;87.20;;;;;;12607730;28;20059;-72
2023/12/13 13:28:17;;;;;;;21.70;19.80;;;10.30;87.60;;;;;;12590242;28;20037;-73
2023/12/13 13:34:19;;;;;;;13.77;11.35;;;10.80;87.50;;;;;;12607074;28;20028;-73
2023/12/13 13:40:22;;;;;;;13.80;11.52;;;10.80;86.40;;;;;;12605946;28;20448;-73
2023/12/13 13:46:24;;;;;;;18.88;16.05;;;10.70;87.00;;;;;;12606601;28;20418;-73
2023/12/13 13:52:26;;;;;;;18.65;17.00;;;10.70;86.90;;;;;;12606331;28;20368;-72
2023/12/13 13:58:27;;;;;;;15.80;14.05;;;10.70;87.10;;;;;;12605923;28;20345;-73
2023/12/13 14:04:29;;;;;;;17.25;15.38;;;11.00;86.90;;;;;;12605851;28;20036;-72
2023/12/13 14:10:31;;;;;;;21.42;19.48;;;11.00;86.60;;;;;;12614335;28;20028;-71
2023/12/13 14:16:33;;;;;;;16.80;15.00;;;10.70;86.60;;;;;;12632428;28;20024;-72
2023/12/13 14:22:36;;;;;;;14.82;13.07;;;10.50;87.20;;;;;;12640619;28;20040;-71
2023/12/13 14:28:38;;;;;;;17.67;15.65;;;10.60;87.20;;;;;;12614568;28;20028;-72
2023/12/13 14:34:39;;;;;;;29.83;27.40;;;10.60;87.10;;;;;;12612813;28;20027;-71
2023/12/13 14:40:42;;;;;;;13.95;12.00;;;10.90;87.40;;;;;;12604087;28;20036;-71
2023/12/13 14:46:44;;;;;;;22.13;20.25;;;11.00;86.80;;;;;;12616918;28;20035;-72
2023/12/13 14:52:46;;;;;;;19.70;15.68;;;10.80;87.00;;;;;;12605565;28;20436;-71
2023/12/13 14:58:47;;;;;;;17.25;15.55;;;11.20;87.20;;;;;;12610823;22;20040;-71
2023/12/13 15:04:50;;;;;;;16.63;14.43;;;11.70;86.70;;;;;;12605143;28;20080;-71
2023/12/13 15:10:54;;;;;;;14.05;11.90;;;11.90;86.40;;;;;;12569367;28;20546;-72
2023/12/13 15:16:56;;;;;;;16.30;14.32;;;12.10;86.20;;;;;;12604203;28;20033;-71
2023/12/13 15:22:58;;;;;;;19.15;17.30;;;12.20;86.00;;;;;;12570099;28;20040;-71
2023/12/13 15:29:01;;;;;;;15.35;13.27;;;12.10;85.90;;;;;;12603075;28;20033;-71
2023/12/13 15:35:08;;;;;;;14.55;13.00;;;11.80;86.40;;;;;;12584907;28;20044;-71
2023/12/13 15:41:10;;;;;;;21.50;19.08;;;11.60;86.70;;;;;;12603430;28;20425;-71
2023/12/13 15:47:11;;;;;;;15.63;13.52;;;11.60;87.10;;;;;;12585022;28;20036;-72
2023/12/13 15:53:13;;;;;;;18.23;16.63;;;11.50;87.30;;;;;;12584907;28;20043;-73
2023/12/13 15:59:15;;;;;;;16.17;14.07;;;11.20;86.80;;;;;;12586471;28;20045;-72
2023/12/13 16:05:17;;;;;;;17.17;13.52;;;11.30;87.30;;;;;;12611806;28;20243;-72
2023/12/13 16:11:18;;;;;;;16.60;15.02;;;11.60;86.70;;;;;;12611356;28;20036;-73
2023/12/13 16:17:20;;;;;;;22.88;14.70;;;11.30;86.50;;;;;;12593199;28;20051;-74
2023/12/13 16:23:22;;;;;;;17.13;15.27;;;11.40;86.90;;;;;;12592804;28;20040;-74
2023/12/13 16:29:23;;;;;;;19.08;14.57;;;11.20;86.30;;;;;;12610572;28;20028;-74
2023/12/13 16:35:25;;;;;;;17.52;16.00;;;11.00;86.80;;;;;;12592311;28;20044;-75
2023/12/13 16:41:27;;;;;;;23.73;21.70;;;10.70;86.90;;;;;;12591949;28;20032;-75
2023/12/13 16:47:29;;;;;;;27.35;24.77;;;10.80;87.40;;;;;;12591746;28;20044;-74
2023/12/13 16:53:30;;;;;;;16.83;15.18;;;11.10;87.50;;;;;;12609423;28;20035;-75
2023/12/13 16:59:32;;;;;;;22.77;20.75;;;11.20;87.00;;;;;;12591171;28;20360;-75
2023/12/13 17:05:34;;;;;;;19.98;17.90;;;10.90;87.00;;;;;;12608825;28;20032;-75
2023/12/13 17:11:35;;;;;;;21.98;19.90;;;10.70;87.20;;;;;;12574257;28;20051;-75
2023/12/13 17:17:38;;;;;;;31.30;28.55;;;10.60;87.40;;;;;;12590259;28;20028;-75
2023/12/13 17:23:39;;;;;;;31.25;29.13;;;10.70;87.60;;;;;;12607833;28;20040;-75
2023/12/13 17:29:42;;;;;;;27.98;25.83;;;10.80;87.20;;;;;;12607421;28;20334;-74
2023/12/13 17:35:46;;;;;;;25.83;23.70;;;10.60;87.20;;;;;;12589460;28;20334;-75
2023/12/13 17:41:47;;;;;;;28.65;24.77;;;10.40;87.30;;;;;;12607129;28;20033;-75
2023/12/13 17:47:49;;;;;;;16.60;14.63;;;10.60;87.80;;;;;;12588991;28;20032;-75
2023/12/13 17:53:51;;;;;;;23.98;21.60;;;10.60;86.90;;;;;;12606496;28;20441;-75
2023/12/13 17:59:53;;;;;;;18.35;16.52;;;10.30;86.80;;;;;;12606005;28;20059;-75
2023/12/13 18:05:54;;;;;;;14.27;12.18;;;10.10;87.20;;;;;;12606545;28;20028;-75
2023/12/13 18:11:56;;;;;;;20.67;18.58;;;10.10;87.50;;;;;;12584186;28;20041;-75
2023/12/13 18:17:59;;;;;;;23.77;21.38;;;10.20;87.30;;;;;;12605253;28;20433;-76
2023/12/13 18:24:02;;;;;;;20.73;18.77;;;10.20;87.60;;;;;;12586727;28;20032;-76
2023/12/13 18:30:04;;;;;;;18.50;16.92;;;10.40;88.00;;;;;;12604770;28;20044;-76
2023/12/13 18:36:06;;;;;;;18.88;17.27;;;10.50;87.40;;;;;;12604698;28;20357;-76
2023/12/13 18:42:08;;;;;;;15.68;14.07;;;10.50;87.60;;;;;;12586661;28;20035;-77
2023/12/13 18:48:10;;;;;;;17.90;16.33;;;10.40;87.50;;;;;;12586643;28;20338;-77
2023/12/13 18:54:11;;;;;;;16.05;14.70;;;10.30;87.60;;;;;;12604223;28;20036;-77
2023/12/13 19:00:14;;;;;;;17.90;16.17;;;10.30;87.50;;;;;;12569742;28;20441;-77
2023/12/13 19:06:16;;;;;;;14.73;13.13;;;10.10;87.50;;;;;;12586251;28;20358;-78
2023/12/13 19:12:18;;;;;;;13.75;12.45;;;10.10;87.60;;;;;;12603708;28;20351;-78
2023/12/13 19:18:22;;;;;;;11.88;10.68;;;10.20;87.70;;;;;;12603554;28;20039;-78
2023/12/13 19:24:24;;;;;;;14.45;12.32;;;10.20;87.60;;;;;;12585660;28;20025;-78
2023/12/13 19:30:26;;;;;;;15.50;13.88;;;10.10;87.50;;;;;;12585402;28;20049;-78
2023/12/13 19:36:27;;;;;;;19.70;17.58;;;10.00;87.60;;;;;;12576310;28;20045;-78
2023/12/13 19:42:29;;;;;;;17.10;12.43;;;9.90;87.70;;;;;;12578651;28;20052;-78
2023/12/13 19:48:31;;;;;;;14.57;11.73;;;10.00;87.70;;;;;;12594664;28;20435;-77
2023/12/13 19:54:34;;;;;;;17.45;15.60;;;9.90;87.70;;;;;;12594479;28;20052;-77
2023/12/13 20:00:35;;;;;;;23.00;21.10;;;10.20;88.20;;;;;;12611826;28;20036;-77
2023/12/13 20:06:37;;;;;;;23.10;21.30;;;10.60;88.00;;;;;;12593855;28;20032;-77
2023/12/13 20:12:39;;;;;;;19.33;17.73;;;10.70;87.90;;;;;;12593568;28;20040;-77
2023/12/13 20:18:41;;;;;;;16.85;15.30;;;10.90;87.80;;;;;;12610970;28;20055;-77
2023/12/13 20:24:42;;;;;;;20.85;18.92;;;10.80;87.40;;;;;;12610519;28;20032;-77
2023/12/13 20:30:44;;;;;;;18.40;16.77;;;10.70;87.70;;;;;;12560175;28;20060;-75
2023/12/13 20:36:46;;;;;;;18.60;16.98;;;10.80;87.70;;;;;;12610265;28;20024;-76
2023/12/13 20:42:48;;;;;;;23.23;21.23;;;10.90;87.60;;;;;;12609909;28;20036;-77
2023/12/13 20:48:50;;;;;;;14.30;12.88;;;11.10;87.70;;;;;;12558915;28;20051;-77
2023/12/13 20:54:51;;;;;;;18.33;16.63;;;11.10;87.60;;;;;;12609387;28;20040;-77
2023/12/13 21:00:53;;;;;;;16.55;15.15;;;11.20;87.80;;;;;;12609083;28;20369;-77
2023/12/13 21:06:55;;;;;;;16.25;14.95;;;11.10;87.60;;;;;;12601039;28;20025;-77
2023/12/13 21:12:57;;;;;;;12.80;11.40;;;11.00;87.60;;;;;;12558759;28;20036;-76
2023/12/13 21:18:58;;;;;;;10.18;8.57;;;11.10;87.50;;;;;;12558593;28;20346;-77
2023/12/13 21:25:00;;;;;;;21.58;19.95;;;11.00;87.20;;;;;;12558371;28;20026;-77
2023/12/13 21:31:03;;;;;;;12.35;11.15;;;10.80;87.10;;;;;;12558141;28;20037;-78
2023/12/13 21:37:04;;;;;;;19.52;17.73;;;10.40;87.30;;;;;;12540107;28;20033;-77
2023/12/13 21:43:06;;;;;;;22.25;20.60;;;10.40;87.60;;;;;;12557471;28;20033;-77
2023/12/13 21:49:07;;;;;;;21.50;19.70;;;10.50;87.40;;;;;;12539423;28;20040;-75
2023/12/13 21:55:09;;;;;;;18.50;17.08;;;10.60;87.50;;;;;;12539793;28;20457;-77
2023/12/13 22:01:11;;;;;;;16.42;15.18;;;10.60;87.20;;;;;;12555546;28;20041;-77
2023/12/13 22:07:12;;;;;;;14.27;12.88;;;10.40;87.10;;;;;;12538694;28;20037;-77
2023/12/13 22:13:14;;;;;;;12.40;10.52;;;10.10;87.10;;;;;;12556066;28;20037;-77
2023/12/13 22:19:36;;;;;;;11.07;8.80;;;9.80;87.40;;;;;;12537902;28;20456;-77
2023/12/13 22:25:37;;;;;;;12.95;11.60;;;9.70;87.60;;;;;;12555619;28;20030;-77
2023/12/13 22:31:39;;;;;;;14.15;12.75;;;9.70;87.60;;;;;;12555315;28;20036;-77
2023/12/13 22:37:40;;;;;;;14.65;13.15;;;9.80;87.40;;;;;;12555003;28;20033;-72
2023/12/13 22:43:42;;;;;;;11.25;10.15;;;9.90;86.90;;;;;;12554779;28;20029;-72
2023/12/13 22:49:43;;;;;;;21.25;18.80;;;9.60;86.90;;;;;;12555330;28;20342;-72
2023/12/13 22:55:45;;;;;;;23.98;22.27;;;9.50;87.20;;;;;;12549317;23;20041;-73
2023/12/13 23:02:16;;;;;;;28.95;26.73;;;9.60;87.20;;;;;;12503644;28;20358;-73
2023/12/13 23:08:19;;;;;;;12.68;11.38;;;9.60;87.00;;;;;;12504367;28;20473;-73
2023/12/13 23:14:21;;;;;;;17.98;11.13;;;9.90;86.60;;;;;;12504444;28;20037;-73
2023/12/13 23:20:22;;;;;;;11.95;9.60;;;9.90;86.30;;;;;;12503114;28;20037;-72
2023/12/13 23:26:24;;;;;;;13.45;10.93;;;9.70;86.30;;;;;;12503133;28;20025;-73
2023/12/13 23:32:26;;;;;;;15.60;13.63;;;9.80;86.50;;;;;;12504137;28;20044;-73
2023/12/13 23:38:27;;;;;;;9.13;8.05;;;9.90;86.30;;;;;;12503954;28;20327;-72
2023/12/13 23:44:29;;;;;;;18.80;17.30;;;9.50;86.30;;;;;;12502720;28;20030;-73
2023/12/13 23:50:31;;;;;;;22.08;19.98;;;9.20;86.50;;;;;;12502752;28;20036;-73
2023/12/13 23:56:35;;;;;;;20.13;18.50;;;9.20;86.60;;;;;;12502122;28;20362;-76
